Terminal Aerodrome Forecast
Issued by NWS Lake Charles, LA

Home | Current Version | Previous Version | Text Only | Print | Product List | Glossary On
Versions: 1 2 3 4 5 6 7 8 9 10 11 12 13 14 15 16
000
FTUS44 KLCH 300818 AAA
TAFARA
TAF AMD
KARA 300818Z 3008/3106 32006KT P6SM FEW030
     FM302000 VRB06KT P6SM VCTS SCT050CB
     FM310000 32004KT P6SM SCT050=

USA.gov is the U.S. government's official web portal to all federal, state and local government web resources and services.